Dollar Bay, MI (49922)

3:30 AM EDT on September 02, 2015 (GMT -0400)
Forsman Road | | Change Station
CLOSE
Current Station
Personal Weather Station
Location: Hancock, MI
Elevation: 1116 ft
Nearby Weather Stations

Elev 1116 ft 47.15 °N, 88.52 °W | Updated 35 seconds ago

Fog
Fog
66.7 °F
Feels Like 66.7 °F
N
0.0
Wind Variable Wind from NW
Gusts 0.0 mph

Today
High -- | Low -- °F
--% Chance of Precip.
Yesterday
High -- | Low -- °F
Precip. -- in
7:14 AM 8:32 PM
Waning Gibbous, 82% visible
Pressure 29.94 in
Visibility 0.2 miles
Clouds
Dew Point 66 °F
Humidity 99%
Rainfall 0.00 in
Snow Depth Not available.
UV Not available.
Pollen 9.10 out of 12
Air Quality Not available.
Flu Activity Not available.
METAR KCMX 020653Z AUTO 31003KT 1/4SM FG VV002 17/17 A2995 RMK AO2 SLP137 T01720167 TSNO $
Pressure 29.94 in
Visibility 0.2 miles
Clouds
Dew Point 66 °F
Humidity 99%
Rainfall 0.00 in
Snow Depth Not available.
UV Not available.
Pollen 9.10 out of 12
Air Quality Not available.
Flu Activity Not available.
METAR KCMX 020653Z AUTO 31003KT 1/4SM FG VV002 17/17 A2995 RMK AO2 SLP137 T01720167 TSNO $

10-Day Weather Forecast

×

Almanac

Astronomy

Sep. 02, 2015 Rise Set
Actual Time
Civil Twilight
Nautical Twilight
Astronomical Twilight
Moon
Length of Visible Light
Length of Day
Tomorrow will be .
, % of the Moon is Illuminated

Today's Extremes

State Highs State Lows

Community

WunderPhotos

Upload Photos

1,851,723 photos uploaded!

WunderBlogs® & News

Nearby

Air Quality

  Air Quality AQ Index Pollutant
Not available.

Snow Depth

Station Depth Elevation

Earthquake Activity

City Distance Mag. Time & Date
Minimum magnitude displayed is 2.5.

Coastal Water Temperatures

Place Temperature

Stations

Nearby Weather Stations

Station Location Temp. Windchill Dew Point Humidity Wind Precip. Elev Updated Type